sensor_id;sensor_type;location;lat;lon;timestamp;temperature;humidity
52471;DHT22;38382;53.160;7.026;2022-07-22T00:01:56;16.30;99.90
52471;DHT22;38382;53.160;7.026;2022-07-22T00:04:21;16.30;99.90
52471;DHT22;38382;53.160;7.026;2022-07-22T00:06:47;16.30;99.90
52471;DHT22;38382;53.160;7.026;2022-07-22T00:09:13;16.30;99.90
52471;DHT22;38382;53.160;7.026;2022-07-22T00:11:39;16.60;99.90
52471;DHT22;38382;53.160;7.026;2022-07-22T00:14:08;16.20;99.90
52471;DHT22;38382;53.160;7.026;2022-07-22T00:16:34;16.30;99.90
52471;DHT22;38382;53.160;7.026;2022-07-22T00:18:59;16.20;99.90
52471;DHT22;38382;53.160;7.026;2022-07-22T00:21:25;16.20;99.90
52471;DHT22;38382;53.160;7.026;2022-07-22T00:23:51;16.20;99.90
52471;DHT22;38382;53.160;7.026;2022-07-22T00:26:17;16.20;99.90
52471;DHT22;38382;53.160;7.026;2022-07-22T00:28:42;16.20;99.90
52471;DHT22;38382;53.160;7.026;2022-07-22T00:31:08;16.20;99.90
52471;DHT22;38382;53.160;7.026;2022-07-22T00:33:34;16.20;99.90
52471;DHT22;38382;53.160;7.026;2022-07-22T00:35:59;16.20;99.90
52471;DHT22;38382;53.160;7.026;2022-07-22T00:38:25;16.20;99.90
52471;DHT22;38382;53.160;7.026;2022-07-22T00:40:51;16.20;99.90
52471;DHT22;38382;53.160;7.026;2022-07-22T00:43:16;16.20;99.90
52471;DHT22;38382;53.160;7.026;2022-07-22T00:45:42;16.10;99.90
52471;DHT22;38382;53.160;7.026;2022-07-22T00:48:08;16.10;99.90
52471;DHT22;38382;53.160;7.026;2022-07-22T00:50:33;16.10;99.90
52471;DHT22;38382;53.160;7.026;2022-07-22T00:53:00;16.10;99.90
52471;DHT22;38382;53.160;7.026;2022-07-22T00:55:26;16.10;99.90
52471;DHT22;38382;53.160;7.026;2022-07-22T00:57:52;16.00;99.90
52471;DHT22;38382;53.160;7.026;2022-07-22T01:00:20;16.00;99.90
52471;DHT22;38382;53.160;7.026;2022-07-22T01:02:46;16.00;99.90
52471;DHT22;38382;53.160;7.026;2022-07-22T01:05:13;16.00;99.90
52471;DHT22;38382;53.160;7.026;2022-07-22T01:07:39;16.10;99.90
52471;DHT22;38382;53.160;7.026;2022-07-22T01:10:06;16.00;99.90
52471;DHT22;38382;53.160;7.026;2022-07-22T01:12:32;16.00;99.90
52471;DHT22;38382;53.160;7.026;2022-07-22T01:14:58;15.90;99.90
52471;DHT22;38382;53.160;7.026;2022-07-22T01:17:24;15.90;99.90
52471;DHT22;38382;53.160;7.026;2022-07-22T01:19:50;16.00;99.90
52471;DHT22;38382;53.160;7.026;2022-07-22T01:22:16;15.90;99.90
52471;DHT22;38382;53.160;7.026;2022-07-22T01:24:42;15.90;99.90
52471;DHT22;38382;53.160;7.026;2022-07-22T01:27:07;15.90;99.90
52471;DHT22;38382;53.160;7.026;2022-07-22T01:29:33;16.00;99.90
52471;DHT22;38382;53.160;7.026;2022-07-22T01:31:59;15.90;99.90
52471;DHT22;38382;53.160;7.026;2022-07-22T01:34:25;15.90;99.90
52471;DHT22;38382;53.160;7.026;2022-07-22T01:36:51;15.90;99.90
52471;DHT22;38382;53.160;7.026;2022-07-22T01:39:17;15.90;99.90
52471;DHT22;38382;53.160;7.026;2022-07-22T01:41:43;15.90;99.90
52471;DHT22;38382;53.160;7.026;2022-07-22T01:44:09;15.80;99.90
52471;DHT22;38382;53.160;7.026;2022-07-22T01:46:35;15.90;99.90
52471;DHT22;38382;53.160;7.026;2022-07-22T01:49:01;16.00;99.90
52471;DHT22;38382;53.160;7.026;2022-07-22T01:51:27;15.90;99.90
52471;DHT22;38382;53.160;7.026;2022-07-22T01:53:52;15.90;99.90
52471;DHT22;38382;53.160;7.026;2022-07-22T01:56:18;15.90;99.90
52471;DHT22;38382;53.160;7.026;2022-07-22T01:58:44;15.90;99.90
52471;DHT22;38382;53.160;7.026;2022-07-22T02:01:10;16.10;99.90
52471;DHT22;38382;53.160;7.026;2022-07-22T02:03:36;16.10;99.90
52471;DHT22;38382;53.160;7.026;2022-07-22T02:06:02;15.90;99.90
52471;DHT22;38382;53.160;7.026;2022-07-22T02:08:28;15.90;99.90
52471;DHT22;38382;53.160;7.026;2022-07-22T02:10:54;15.90;99.90
52471;DHT22;38382;53.160;7.026;2022-07-22T02:13:20;15.90;99.90
52471;DHT22;38382;53.160;7.026;2022-07-22T02:15:46;15.80;99.90
52471;DHT22;38382;53.160;7.026;2022-07-22T02:18:14;15.80;99.90
52471;DHT22;38382;53.160;7.026;2022-07-22T02:20:40;15.80;99.90
52471;DHT22;38382;53.160;7.026;2022-07-22T02:23:06;15.80;99.90
52471;DHT22;38382;53.160;7.026;2022-07-22T02:25:32;15.80;99.90
52471;DHT22;38382;53.160;7.026;2022-07-22T02:27:58;15.90;99.90
52471;DHT22;38382;53.160;7.026;2022-07-22T02:30:23;15.80;99.90
52471;DHT22;38382;53.160;7.026;2022-07-22T02:32:49;15.80;99.90
52471;DHT22;38382;53.160;7.026;2022-07-22T02:35:15;15.80;99.90
52471;DHT22;38382;53.160;7.026;2022-07-22T02:37:40;15.80;99.90
52471;DHT22;38382;53.160;7.026;2022-07-22T02:40:24;15.80;99.90
52471;DHT22;38382;53.160;7.026;2022-07-22T02:42:50;15.80;99.90
52471;DHT22;38382;53.160;7.026;2022-07-22T02:45:16;15.40;99.90
52471;DHT22;38382;53.160;7.026;2022-07-22T02:47:50;15.70;99.90
52471;DHT22;38382;53.160;7.026;2022-07-22T02:50:16;15.70;99.90
52471;DHT22;38382;53.160;7.026;2022-07-22T02:52:42;15.70;99.90
52471;DHT22;38382;53.160;7.026;2022-07-22T02:55:08;15.70;99.90
52471;DHT22;38382;53.160;7.026;2022-07-22T02:57:34;15.70;99.90
52471;DHT22;38382;53.160;7.026;2022-07-22T03:00:00;15.70;99.90
52471;DHT22;38382;53.160;7.026;2022-07-22T03:02:26;15.70;99.90
52471;DHT22;38382;53.160;7.026;2022-07-22T03:04:52;15.70;99.90
52471;DHT22;38382;53.160;7.026;2022-07-22T03:07:17;15.70;99.90
52471;DHT22;38382;53.160;7.026;2022-07-22T03:09:43;15.70;99.90
52471;DHT22;38382;53.160;7.026;2022-07-22T03:12:10;16.00;99.90
52471;DHT22;38382;53.160;7.026;2022-07-22T03:14:36;15.70;99.90
52471;DHT22;38382;53.160;7.026;2022-07-22T03:17:02;15.70;99.90
52471;DHT22;38382;53.160;7.026;2022-07-22T03:19:28;15.70;99.90
52471;DHT22;38382;53.160;7.026;2022-07-22T03:21:53;15.60;99.90
52471;DHT22;38382;53.160;7.026;2022-07-22T03:26:44;15.70;99.90
52471;DHT22;38382;53.160;7.026;2022-07-22T03:29:10;15.60;99.90
52471;DHT22;38382;53.160;7.026;2022-07-22T03:31:36;15.60;99.90
52471;DHT22;38382;53.160;7.026;2022-07-22T03:34:01;15.70;99.90
52471;DHT22;38382;53.160;7.026;2022-07-22T03:36:28;15.60;99.90
52471;DHT22;38382;53.160;7.026;2022-07-22T03:38:57;15.60;99.90
52471;DHT22;38382;53.160;7.026;2022-07-22T03:41:23;15.90;99.90
52471;DHT22;38382;53.160;7.026;2022-07-22T03:43:48;15.70;99.90
52471;DHT22;38382;53.160;7.026;2022-07-22T03:46:14;15.70;99.90
52471;DHT22;38382;53.160;7.026;2022-07-22T03:48:40;15.60;99.90
52471;DHT22;38382;53.160;7.026;2022-07-22T03:51:06;15.60;99.90
52471;DHT22;38382;53.160;7.026;2022-07-22T03:53:32;15.60;99.90
52471;DHT22;38382;53.160;7.026;2022-07-22T03:56:01;15.60;99.90
52471;DHT22;38382;53.160;7.026;2022-07-22T03:58:26;15.60;99.90
52471;DHT22;38382;53.160;7.026;2022-07-22T04:00:53;15.60;99.90
52471;DHT22;38382;53.160;7.026;2022-07-22T04:03:19;15.60;99.90
52471;DHT22;38382;53.160;7.026;2022-07-22T04:05:45;15.60;99.90
52471;DHT22;38382;53.160;7.026;2022-07-22T04:08:12;15.50;99.90
52471;DHT22;38382;53.160;7.026;2022-07-22T04:10:38;15.60;99.90
52471;DHT22;38382;53.160;7.026;2022-07-22T04:13:04;15.50;99.90
52471;DHT22;38382;53.160;7.026;2022-07-22T04:15:30;15.60;99.90
52471;DHT22;38382;53.160;7.026;2022-07-22T04:17:55;15.50;99.90
52471;DHT22;38382;53.160;7.026;2022-07-22T04:20:21;15.60;99.90
52471;DHT22;38382;53.160;7.026;2022-07-22T04:22:47;15.60;99.90
52471;DHT22;38382;53.160;7.026;2022-07-22T04:25:13;15.60;99.90
52471;DHT22;38382;53.160;7.026;2022-07-22T04:27:39;15.60;99.90
52471;DHT22;38382;53.160;7.026;2022-07-22T04:30:06;16.10;99.90
52471;DHT22;38382;53.160;7.026;2022-07-22T04:32:32;15.60;99.90
52471;DHT22;38382;53.160;7.026;2022-07-22T04:34:57;15.60;99.90
52471;DHT22;38382;53.160;7.026;2022-07-22T04:37:23;16.00;99.90
52471;DHT22;38382;53.160;7.026;2022-07-22T04:39:49;15.60;99.90
52471;DHT22;38382;53.160;7.026;2022-07-22T04:42:15;15.60;99.90
52471;DHT22;38382;53.160;7.026;2022-07-22T04:44:40;15.60;99.90
52471;DHT22;38382;53.160;7.026;2022-07-22T04:47:06;15.80;99.90
52471;DHT22;38382;53.160;7.026;2022-07-22T04:49:32;16.10;99.90
52471;DHT22;38382;53.160;7.026;2022-07-22T04:51:58;15.60;99.90
52471;DHT22;38382;53.160;7.026;2022-07-22T04:56:52;15.70;99.90
52471;DHT22;38382;53.160;7.026;2022-07-22T04:59:18;15.70;99.90
52471;DHT22;38382;53.160;7.026;2022-07-22T05:01:44;16.60;99.90
52471;DHT22;38382;53.160;7.026;2022-07-22T05:04:09;16.10;99.90
52471;DHT22;38382;53.160;7.026;2022-07-22T05:06:35;15.80;99.90
52471;DHT22;38382;53.160;7.026;2022-07-22T05:09:01;15.70;99.90
52471;DHT22;38382;53.160;7.026;2022-07-22T05:11:27;15.70;99.90
52471;DHT22;38382;53.160;7.026;2022-07-22T05:13:52;15.80;99.90
52471;DHT22;38382;53.160;7.026;2022-07-22T05:16:18;15.80;99.90
52471;DHT22;38382;53.160;7.026;2022-07-22T05:18:44;15.80;99.90
52471;DHT22;38382;53.160;7.026;2022-07-22T05:21:10;15.80;99.90
52471;DHT22;38382;53.160;7.026;2022-07-22T05:23:35;15.80;99.90
52471;DHT22;38382;53.160;7.026;2022-07-22T05:26:03;15.90;99.90
52471;DHT22;38382;53.160;7.026;2022-07-22T05:28:29;15.90;99.90
52471;DHT22;38382;53.160;7.026;2022-07-22T05:30:55;15.90;99.90
52471;DHT22;38382;53.160;7.026;2022-07-22T05:33:20;16.00;99.90
52471;DHT22;38382;53.160;7.026;2022-07-22T05:35:46;16.00;99.90
52471;DHT22;38382;53.160;7.026;2022-07-22T05:38:12;16.00;99.90
52471;DHT22;38382;53.160;7.026;2022-07-22T05:40:37;16.00;99.90
52471;DHT22;38382;53.160;7.026;2022-07-22T05:43:03;15.90;99.90
52471;DHT22;38382;53.160;7.026;2022-07-22T05:45:29;16.00;99.90
52471;DHT22;38382;53.160;7.026;2022-07-22T05:47:55;16.10;99.90
52471;DHT22;38382;53.160;7.026;2022-07-22T05:50:20;16.10;99.90
52471;DHT22;38382;53.160;7.026;2022-07-22T05:52:46;16.10;99.90
52471;DHT22;38382;53.160;7.026;2022-07-22T05:59:43;16.20;99.90
52471;DHT22;38382;53.160;7.026;2022-07-22T06:02:09;16.20;99.90
52471;DHT22;38382;53.160;7.026;2022-07-22T06:04:35;16.30;99.90
52471;DHT22;38382;53.160;7.026;2022-07-22T06:07:01;16.30;99.90
52471;DHT22;38382;53.160;7.026;2022-07-22T06:09:27;16.30;99.90
52471;DHT22;38382;53.160;7.026;2022-07-22T06:11:52;16.40;99.90
52471;DHT22;38382;53.160;7.026;2022-07-22T06:14:18;16.40;99.90
52471;DHT22;38382;53.160;7.026;2022-07-22T06:16:44;16.40;99.90
52471;DHT22;38382;53.160;7.026;2022-07-22T06:19:09;16.40;99.90
52471;DHT22;38382;53.160;7.026;2022-07-22T06:21:35;16.30;99.90
52471;DHT22;38382;53.160;7.026;2022-07-22T06:24:01;16.30;99.90
52471;DHT22;38382;53.160;7.026;2022-07-22T06:26:27;16.50;99.90
52471;DHT22;38382;53.160;7.026;2022-07-22T06:28:53;16.30;99.90
52471;DHT22;38382;53.160;7.026;2022-07-22T06:31:19;16.20;99.90
52471;DHT22;38382;53.160;7.026;2022-07-22T06:33:45;16.50;99.90
52471;DHT22;38382;53.160;7.026;2022-07-22T06:36:10;16.50;99.90
52471;DHT22;38382;53.160;7.026;2022-07-22T06:38:36;16.50;99.90
52471;DHT22;38382;53.160;7.026;2022-07-22T06:41:02;16.40;99.90
52471;DHT22;38382;53.160;7.026;2022-07-22T06:43:28;16.50;99.90
52471;DHT22;38382;53.160;7.026;2022-07-22T06:45:54;16.50;99.90
52471;DHT22;38382;53.160;7.026;2022-07-22T06:48:20;16.50;99.90
52471;DHT22;38382;53.160;7.026;2022-07-22T06:50:46;16.60;99.90
52471;DHT22;38382;53.160;7.026;2022-07-22T06:53:11;16.70;99.90
52471;DHT22;38382;53.160;7.026;2022-07-22T06:55:37;16.80;99.90
52471;DHT22;38382;53.160;7.026;2022-07-22T06:58:03;16.70;99.90
52471;DHT22;38382;53.160;7.026;2022-07-22T07:00:29;16.80;99.90
52471;DHT22;38382;53.160;7.026;2022-07-22T07:02:58;16.80;99.90
52471;DHT22;38382;53.160;7.026;2022-07-22T07:05:25;16.90;99.90
52471;DHT22;38382;53.160;7.026;2022-07-22T07:07:53;16.90;99.90
52471;DHT22;38382;53.160;7.026;2022-07-22T07:10:19;17.00;99.90
52471;DHT22;38382;53.160;7.026;2022-07-22T07:12:44;17.10;99.90
52471;DHT22;38382;53.160;7.026;2022-07-22T07:15:11;17.10;99.90
52471;DHT22;38382;53.160;7.026;2022-07-22T07:17:37;17.20;99.90
52471;DHT22;38382;53.160;7.026;2022-07-22T07:20:04;17.20;99.90
52471;DHT22;38382;53.160;7.026;2022-07-22T07:22:31;17.30;99.90
52471;DHT22;38382;53.160;7.026;2022-07-22T07:24:57;17.30;99.90
52471;DHT22;38382;53.160;7.026;2022-07-22T07:27:26;17.50;99.90
52471;DHT22;38382;53.160;7.026;2022-07-22T07:29:53;17.50;99.90
52471;DHT22;38382;53.160;7.026;2022-07-22T07:32:19;17.50;99.90
52471;DHT22;38382;53.160;7.026;2022-07-22T07:34:44;17.60;99.90
52471;DHT22;38382;53.160;7.026;2022-07-22T07:37:11;17.60;99.90
52471;DHT22;38382;53.160;7.026;2022-07-22T07:39:37;17.70;99.90
52471;DHT22;38382;53.160;7.026;2022-07-22T07:42:03;17.80;99.90
52471;DHT22;38382;53.160;7.026;2022-07-22T07:44:29;17.80;99.90
52471;DHT22;38382;53.160;7.026;2022-07-22T07:46:54;17.90;99.90
52471;DHT22;38382;53.160;7.026;2022-07-22T07:49:20;17.90;99.90
52471;DHT22;38382;53.160;7.026;2022-07-22T07:51:46;18.00;99.90
52471;DHT22;38382;53.160;7.026;2022-07-22T07:54:12;18.10;99.90
52471;DHT22;38382;53.160;7.026;2022-07-22T07:56:37;18.20;99.90
52471;DHT22;38382;53.160;7.026;2022-07-22T07:59:03;18.40;99.90
52471;DHT22;38382;53.160;7.026;2022-07-22T08:01:29;18.60;99.90
52471;DHT22;38382;53.160;7.026;2022-07-22T08:03:54;18.60;99.90
52471;DHT22;38382;53.160;7.026;2022-07-22T08:06:20;18.60;99.90
52471;DHT22;38382;53.160;7.026;2022-07-22T08:08:46;18.60;99.90
52471;DHT22;38382;53.160;7.026;2022-07-22T08:11:11;18.50;99.90
52471;DHT22;38382;53.160;7.026;2022-07-22T08:13:37;18.50;99.90
52471;DHT22;38382;53.160;7.026;2022-07-22T08:16:03;18.50;99.90
52471;DHT22;38382;53.160;7.026;2022-07-22T08:18:29;18.60;99.90
52471;DHT22;38382;53.160;7.026;2022-07-22T08:20:56;18.80;99.90
52471;DHT22;38382;53.160;7.026;2022-07-22T08:23:23;18.90;99.90
52471;DHT22;38382;53.160;7.026;2022-07-22T08:25:49;18.90;99.90
52471;DHT22;38382;53.160;7.026;2022-07-22T08:28:14;18.90;99.90
52471;DHT22;38382;53.160;7.026;2022-07-22T08:30:41;18.90;99.90
52471;DHT22;38382;53.160;7.026;2022-07-22T08:33:07;18.80;99.90
52471;DHT22;38382;53.160;7.026;2022-07-22T08:35:33;18.80;99.90
52471;DHT22;38382;53.160;7.026;2022-07-22T08:37:59;18.80;99.90
52471;DHT22;38382;53.160;7.026;2022-07-22T08:40:25;18.70;99.90
52471;DHT22;38382;53.160;7.026;2022-07-22T08:42:51;18.80;99.90
52471;DHT22;38382;53.160;7.026;2022-07-22T08:45:18;18.90;99.90
52471;DHT22;38382;53.160;7.026;2022-07-22T08:47:50;19.00;99.90
52471;DHT22;38382;53.160;7.026;2022-07-22T08:50:16;19.10;99.90
52471;DHT22;38382;53.160;7.026;2022-07-22T08:52:42;19.10;99.90
52471;DHT22;38382;53.160;7.026;2022-07-22T08:55:09;19.20;99.90
52471;DHT22;38382;53.160;7.026;2022-07-22T08:57:35;19.20;99.90
52471;DHT22;38382;53.160;7.026;2022-07-22T09:00:09;19.20;99.90
52471;DHT22;38382;53.160;7.026;2022-07-22T09:02:37;19.20;99.90
52471;DHT22;38382;53.160;7.026;2022-07-22T09:05:05;19.30;99.90
52471;DHT22;38382;53.160;7.026;2022-07-22T09:07:39;19.40;99.90
52471;DHT22;38382;53.160;7.026;2022-07-22T09:10:08;19.60;99.90
52471;DHT22;38382;53.160;7.026;2022-07-22T09:12:34;19.60;99.90
52471;DHT22;38382;53.160;7.026;2022-07-22T09:15:02;19.70;99.90
52471;DHT22;38382;53.160;7.026;2022-07-22T09:17:29;19.80;99.90
52471;DHT22;38382;53.160;7.026;2022-07-22T09:19:59;19.80;99.90
52471;DHT22;38382;53.160;7.026;2022-07-22T09:22:33;19.70;99.90
52471;DHT22;38382;53.160;7.026;2022-07-22T09:30:42;19.60;99.90
52471;DHT22;38382;53.160;7.026;2022-07-22T09:33:10;19.60;99.90
52471;DHT22;38382;53.160;7.026;2022-07-22T09:35:37;19.60;99.90
52471;DHT22;38382;53.160;7.026;2022-07-22T09:38:07;19.50;99.90
52471;DHT22;38382;53.160;7.026;2022-07-22T09:40:44;19.50;99.90
52471;DHT22;38382;53.160;7.026;2022-07-22T09:43:13;19.50;99.90
52471;DHT22;38382;53.160;7.026;2022-07-22T09:45:55;19.30;99.90
52471;DHT22;38382;53.160;7.026;2022-07-22T09:48:23;19.30;99.90
52471;DHT22;38382;53.160;7.026;2022-07-22T09:50:50;19.20;99.90
52471;DHT22;38382;53.160;7.026;2022-07-22T09:53:19;19.20;99.90
52471;DHT22;38382;53.160;7.026;2022-07-22T09:55:45;19.20;99.90
52471;DHT22;38382;53.160;7.026;2022-07-22T09:58:11;19.20;99.90
52471;DHT22;38382;53.160;7.026;2022-07-22T10:00:39;19.20;99.90
52471;DHT22;38382;53.160;7.026;2022-07-22T10:03:07;19.10;99.90
52471;DHT22;38382;53.160;7.026;2022-07-22T10:05:39;19.10;99.90
52471;DHT22;38382;53.160;7.026;2022-07-22T10:08:06;19.00;99.90
52471;DHT22;38382;53.160;7.026;2022-07-22T10:10:33;19.00;99.90
52471;DHT22;38382;53.160;7.026;2022-07-22T10:13:01;19.00;99.90
52471;DHT22;38382;53.160;7.026;2022-07-22T10:15:28;19.00;99.90
52471;DHT22;38382;53.160;7.026;2022-07-22T10:17:56;19.00;99.90
52471;DHT22;38382;53.160;7.026;2022-07-22T10:20:25;19.00;99.90
52471;DHT22;38382;53.160;7.026;2022-07-22T10:25:18;19.20;99.90
52471;DHT22;38382;53.160;7.026;2022-07-22T10:30:10;19.20;99.90
52471;DHT22;38382;53.160;7.026;2022-07-22T10:32:36;19.30;99.90
52471;DHT22;38382;53.160;7.026;2022-07-22T10:45:24;19.40;99.90
52471;DHT22;38382;53.160;7.026;2022-07-22T10:47:59;19.50;99.90
52471;DHT22;38382;53.160;7.026;2022-07-22T10:53:04;19.90;99.90
52471;DHT22;38382;53.160;7.026;2022-07-22T10:55:30;20.10;99.90
52471;DHT22;38382;53.160;7.026;2022-07-22T10:57:56;20.20;99.90
52471;DHT22;38382;53.160;7.026;2022-07-22T11:00:22;20.30;99.90
52471;DHT22;38382;53.160;7.026;2022-07-22T11:02:48;20.20;99.90
52471;DHT22;38382;53.160;7.026;2022-07-22T11:05:14;20.50;99.90
52471;DHT22;38382;53.160;7.026;2022-07-22T11:07:49;20.60;99.90
52471;DHT22;38382;53.160;7.026;2022-07-22T11:10:18;20.70;99.90
52471;DHT22;38382;53.160;7.026;2022-07-22T11:12:48;20.90;99.90
52471;DHT22;38382;53.160;7.026;2022-07-22T11:15:14;20.90;99.90
52471;DHT22;38382;53.160;7.026;2022-07-22T11:17:40;21.00;99.90
52471;DHT22;38382;53.160;7.026;2022-07-22T11:20:11;21.10;99.90
52471;DHT22;38382;53.160;7.026;2022-07-22T11:22:37;21.20;99.90
52471;DHT22;38382;53.160;7.026;2022-07-22T11:25:05;21.20;99.90
52471;DHT22;38382;53.160;7.026;2022-07-22T11:27:32;21.20;99.90
52471;DHT22;38382;53.160;7.026;2022-07-22T11:29:58;21.30;99.90
52471;DHT22;38382;53.160;7.026;2022-07-22T11:32:26;21.30;99.90
52471;DHT22;38382;53.160;7.026;2022-07-22T11:34:53;21.40;99.90
52471;DHT22;38382;53.160;7.026;2022-07-22T11:37:21;21.40;99.90
52471;DHT22;38382;53.160;7.026;2022-07-22T11:40:03;21.50;99.90
52471;DHT22;38382;53.160;7.026;2022-07-22T11:42:29;21.60;99.90
52471;DHT22;38382;53.160;7.026;2022-07-22T11:44:55;21.40;99.90
52471;DHT22;38382;53.160;7.026;2022-07-22T11:47:21;21.40;99.90
52471;DHT22;38382;53.160;7.026;2022-07-22T11:49:47;21.20;99.90
52471;DHT22;38382;53.160;7.026;2022-07-22T11:52:13;21.10;99.90
52471;DHT22;38382;53.160;7.026;2022-07-22T11:54:40;21.10;99.90
52471;DHT22;38382;53.160;7.026;2022-07-22T11:57:07;21.00;99.90
52471;DHT22;38382;53.160;7.026;2022-07-22T11:59:34;21.10;99.90
52471;DHT22;38382;53.160;7.026;2022-07-22T12:02:01;21.00;99.90
52471;DHT22;38382;53.160;7.026;2022-07-22T12:04:27;21.00;99.90
52471;DHT22;38382;53.160;7.026;2022-07-22T12:06:54;21.00;99.90
52471;DHT22;38382;53.160;7.026;2022-07-22T12:09:32;20.90;99.90
52471;DHT22;38382;53.160;7.026;2022-07-22T12:11:58;20.90;99.90
52471;DHT22;38382;53.160;7.026;2022-07-22T12:14:26;21.00;99.90
52471;DHT22;38382;53.160;7.026;2022-07-22T12:17:00;21.10;99.90
52471;DHT22;38382;53.160;7.026;2022-07-22T12:19:31;21.30;99.90
52471;DHT22;38382;53.160;7.026;2022-07-22T12:22:08;21.40;99.90
52471;DHT22;38382;53.160;7.026;2022-07-22T12:27:11;21.70;99.90
52471;DHT22;38382;53.160;7.026;2022-07-22T12:29:47;21.90;99.90
52471;DHT22;38382;53.160;7.026;2022-07-22T12:32:25;22.00;99.90
52471;DHT22;38382;53.160;7.026;2022-07-22T12:37:22;22.20;99.90
52471;DHT22;38382;53.160;7.026;2022-07-22T12:40:01;22.10;99.90
52471;DHT22;38382;53.160;7.026;2022-07-22T12:42:34;22.10;99.90
52471;DHT22;38382;53.160;7.026;2022-07-22T12:52:50;21.70;99.90
52471;DHT22;38382;53.160;7.026;2022-07-22T12:55:16;21.60;99.90
52471;DHT22;38382;53.160;7.026;2022-07-22T12:57:42;21.40;99.90
52471;DHT22;38382;53.160;7.026;2022-07-22T13:00:08;21.20;99.90
52471;DHT22;38382;53.160;7.026;2022-07-22T13:02:35;21.00;99.90
52471;DHT22;38382;53.160;7.026;2022-07-22T13:05:00;20.80;99.90
52471;DHT22;38382;53.160;7.026;2022-07-22T13:07:26;20.70;99.90
52471;DHT22;38382;53.160;7.026;2022-07-22T13:09:52;20.70;99.90
52471;DHT22;38382;53.160;7.026;2022-07-22T13:12:17;20.60;99.90
52471;DHT22;38382;53.160;7.026;2022-07-22T13:14:43;20.50;99.90
52471;DHT22;38382;53.160;7.026;2022-07-22T13:17:08;20.50;99.90
52471;DHT22;38382;53.160;7.026;2022-07-22T13:19:34;20.50;99.90
52471;DHT22;38382;53.160;7.026;2022-07-22T13:22:00;20.30;99.90
52471;DHT22;38382;53.160;7.026;2022-07-22T13:26:51;20.30;99.90
52471;DHT22;38382;53.160;7.026;2022-07-22T13:29:17;20.20;99.90
52471;DHT22;38382;53.160;7.026;2022-07-22T13:31:43;20.20;99.90
52471;DHT22;38382;53.160;7.026;2022-07-22T13:34:11;20.10;99.90
52471;DHT22;38382;53.160;7.026;2022-07-22T13:36:37;20.20;99.90
52471;DHT22;38382;53.160;7.026;2022-07-22T13:39:03;20.10;99.90
52471;DHT22;38382;53.160;7.026;2022-07-22T13:41:31;20.10;99.90
52471;DHT22;38382;53.160;7.026;2022-07-22T13:43:56;20.20;99.90
52471;DHT22;38382;53.160;7.026;2022-07-22T13:46:22;20.20;99.90
52471;DHT22;38382;53.160;7.026;2022-07-22T13:48:48;20.30;99.90
52471;DHT22;38382;53.160;7.026;2022-07-22T13:51:14;20.30;99.90
52471;DHT22;38382;53.160;7.026;2022-07-22T13:53:41;20.40;99.90
52471;DHT22;38382;53.160;7.026;2022-07-22T13:56:09;20.50;99.90
52471;DHT22;38382;53.160;7.026;2022-07-22T13:58:35;20.60;99.90
52471;DHT22;38382;53.160;7.026;2022-07-22T14:01:02;20.80;99.90
52471;DHT22;38382;53.160;7.026;2022-07-22T14:03:28;21.00;99.90
52471;DHT22;38382;53.160;7.026;2022-07-22T14:05:54;21.20;99.90
52471;DHT22;38382;53.160;7.026;2022-07-22T14:08:20;21.40;99.90
52471;DHT22;38382;53.160;7.026;2022-07-22T14:10:46;21.50;99.90
52471;DHT22;38382;53.160;7.026;2022-07-22T14:13:12;21.60;99.90
52471;DHT22;38382;53.160;7.026;2022-07-22T14:15:38;21.70;99.90
52471;DHT22;38382;53.160;7.026;2022-07-22T14:18:03;21.80;99.90
52471;DHT22;38382;53.160;7.026;2022-07-22T14:20:32;21.90;99.90
52471;DHT22;38382;53.160;7.026;2022-07-22T14:22:58;22.00;99.90
52471;DHT22;38382;53.160;7.026;2022-07-22T14:25:24;22.00;99.90
52471;DHT22;38382;53.160;7.026;2022-07-22T14:27:49;22.00;99.90
52471;DHT22;38382;53.160;7.026;2022-07-22T14:30:16;21.80;99.90
52471;DHT22;38382;53.160;7.026;2022-07-22T14:32:41;21.70;99.90
52471;DHT22;38382;53.160;7.026;2022-07-22T14:35:07;21.60;99.90
52471;DHT22;38382;53.160;7.026;2022-07-22T14:37:33;21.20;99.90
52471;DHT22;38382;53.160;7.026;2022-07-22T14:39:59;21.50;99.90
52471;DHT22;38382;53.160;7.026;2022-07-22T14:42:25;21.40;99.90
52471;DHT22;38382;53.160;7.026;2022-07-22T14:44:51;21.30;99.90
52471;DHT22;38382;53.160;7.026;2022-07-22T14:47:17;21.20;99.90
52471;DHT22;38382;53.160;7.026;2022-07-22T14:49:43;21.10;99.90
52471;DHT22;38382;53.160;7.026;2022-07-22T14:52:08;21.00;99.90
52471;DHT22;38382;53.160;7.026;2022-07-22T14:57:09;20.80;99.90
52471;DHT22;38382;53.160;7.026;2022-07-22T14:59:37;20.80;99.90
52471;DHT22;38382;53.160;7.026;2022-07-22T15:02:03;20.80;99.90
52471;DHT22;38382;53.160;7.026;2022-07-22T15:04:29;20.80;99.90
52471;DHT22;38382;53.160;7.026;2022-07-22T15:06:55;20.70;99.90
52471;DHT22;38382;53.160;7.026;2022-07-22T15:09:21;20.70;99.90
52471;DHT22;38382;53.160;7.026;2022-07-22T15:11:46;20.70;99.90
52471;DHT22;38382;53.160;7.026;2022-07-22T15:14:12;20.70;99.90
52471;DHT22;38382;53.160;7.026;2022-07-22T15:16:38;20.70;99.90
52471;DHT22;38382;53.160;7.026;2022-07-22T15:19:04;20.70;99.90
52471;DHT22;38382;53.160;7.026;2022-07-22T15:21:29;20.70;99.90
52471;DHT22;38382;53.160;7.026;2022-07-22T15:23:57;20.70;99.90
52471;DHT22;38382;53.160;7.026;2022-07-22T15:26:26;20.60;99.90
52471;DHT22;38382;53.160;7.026;2022-07-22T15:28:55;20.90;99.90
52471;DHT22;38382;53.160;7.026;2022-07-22T15:31:21;20.50;99.90
52471;DHT22;38382;53.160;7.026;2022-07-22T15:33:46;20.40;99.90
52471;DHT22;38382;53.160;7.026;2022-07-22T15:36:20;20.30;99.90
52471;DHT22;38382;53.160;7.026;2022-07-22T15:38:48;20.30;99.90
52471;DHT22;38382;53.160;7.026;2022-07-22T15:41:14;20.30;99.90
52471;DHT22;38382;53.160;7.026;2022-07-22T15:43:40;20.20;99.90
52471;DHT22;38382;53.160;7.026;2022-07-22T15:46:07;20.10;99.90
52471;DHT22;38382;53.160;7.026;2022-07-22T15:48:33;19.90;99.90
52471;DHT22;38382;53.160;7.026;2022-07-22T15:50:58;19.80;99.90
52471;DHT22;38382;53.160;7.026;2022-07-22T15:53:24;19.70;99.90
52471;DHT22;38382;53.160;7.026;2022-07-22T15:55:50;19.60;99.90
52471;DHT22;38382;53.160;7.026;2022-07-22T15:58:16;19.50;99.90
52471;DHT22;38382;53.160;7.026;2022-07-22T16:01:19;19.50;99.90
52471;DHT22;38382;53.160;7.026;2022-07-22T16:03:44;19.40;99.90
52471;DHT22;38382;53.160;7.026;2022-07-22T16:06:11;19.40;99.90
52471;DHT22;38382;53.160;7.026;2022-07-22T16:08:37;19.40;99.90
52471;DHT22;38382;53.160;7.026;2022-07-22T16:11:03;19.30;99.90
52471;DHT22;38382;53.160;7.026;2022-07-22T16:13:29;19.30;99.90
52471;DHT22;38382;53.160;7.026;2022-07-22T16:15:55;19.20;99.90
52471;DHT22;38382;53.160;7.026;2022-07-22T16:18:20;19.20;99.90